createdAt,value
2023-04-17T00:01:22.094Z,7.45
2023-04-17T00:03:52.660Z,8.63
2023-04-17T00:06:22.025Z,7.82
2023-04-17T00:08:51.053Z,7.57
2023-04-17T00:11:21.632Z,7.93
2023-04-17T00:13:59.651Z,8.10
2023-04-17T00:16:29.125Z,7.63
2023-04-17T00:18:58.560Z,6.57
2023-04-17T00:21:29.883Z,6.93
2023-04-17T00:23:59.840Z,7.80
2023-04-17T00:26:30.473Z,8.02
2023-04-17T00:28:59.786Z,7.88
2023-04-17T00:31:29.019Z,7.53
2023-04-17T00:33:59.113Z,7.25
2023-04-17T00:36:28.389Z,7.45
2023-04-17T00:38:57.788Z,8.05
2023-04-17T00:41:26.878Z,7.32
2023-04-17T00:43:57.903Z,7.88
2023-04-17T00:46:27.034Z,7.22
2023-04-17T00:48:56.631Z,6.43
2023-04-17T00:51:29.202Z,7.40
2023-04-17T00:53:59.852Z,7.95
2023-04-17T00:56:30.260Z,7.00
2023-04-17T00:59:03.208Z,7.65
2023-04-17T01:01:32.467Z,7.47
2023-04-17T01:04:05.407Z,7.63
2023-04-17T01:06:34.645Z,7.47
2023-04-17T01:09:04.330Z,6.47
2023-04-17T01:11:33.565Z,7.72
2023-04-17T01:14:04.198Z,7.10
2023-04-17T01:16:40.306Z,7.93
2023-04-17T01:19:10.633Z,6.88
2023-04-17T01:21:41.256Z,6.82
2023-04-17T01:24:11.885Z,6.65
2023-04-17T01:26:41.973Z,8.02
2023-04-17T01:29:11.337Z,7.63
2023-04-17T01:31:42.231Z,7.82
2023-04-17T01:34:11.340Z,7.32
2023-04-17T01:36:40.425Z,7.22
2023-04-17T01:39:11.657Z,6.82
2023-04-17T01:41:45.530Z,7.05
2023-04-17T01:44:15.119Z,8.23
2023-04-17T01:46:44.192Z,7.63
2023-04-17T01:49:13.544Z,6.57
2023-04-17T01:51:43.121Z,7.32
2023-04-17T01:54:12.383Z,6.80
2023-04-17T01:56:43.488Z,7.28
2023-04-17T01:59:12.838Z,7.97
2023-04-17T02:01:42.672Z,7.22
2023-04-17T02:04:11.983Z,8.25
2023-04-17T02:06:41.262Z,7.43
2023-04-17T02:09:11.019Z,7.10
2023-04-17T02:11:42.635Z,7.10
2023-04-17T02:14:13.756Z,7.63
2023-04-17T02:16:45.670Z,7.30
2023-04-17T02:19:14.974Z,7.03
2023-04-17T02:21:44.042Z,7.40
2023-04-17T02:24:13.180Z,7.38
2023-04-17T02:26:43.837Z,6.75
2023-04-17T02:29:14.978Z,6.60
2023-04-17T02:31:44.411Z,6.68
2023-04-17T02:34:13.863Z,6.85
2023-04-17T02:36:43.293Z,7.22
2023-04-17T02:39:12.717Z,7.00
2023-04-17T02:41:43.439Z,7.57
2023-04-17T02:44:16.115Z,7.10
2023-04-17T02:46:45.564Z,7.47
2023-04-17T02:49:15.863Z,7.68
2023-04-17T02:51:45.556Z,6.63
2023-04-17T02:54:14.643Z,6.88
2023-04-17T02:56:45.426Z,7.00
2023-04-17T02:59:15.160Z,6.97
2023-04-17T03:01:45.866Z,7.40
2023-04-17T03:04:17.348Z,7.25
2023-04-17T03:06:46.781Z,7.28
2023-04-17T03:09:18.347Z,6.80
2023-04-17T03:11:50.159Z,6.35
2023-04-17T03:14:21.815Z,6.53
2023-04-17T03:16:51.070Z,6.95
2023-04-17T03:19:20.475Z,6.57
2023-04-17T03:21:49.401Z,7.22
2023-04-17T03:24:18.983Z,7.38
2023-04-17T03:26:49.532Z,6.38
2023-04-17T03:29:21.638Z,6.90
2023-04-17T03:31:50.760Z,6.40
2023-04-17T03:34:22.539Z,6.65
2023-04-17T03:36:52.154Z,6.22
2023-04-17T03:39:21.491Z,6.60
2023-04-17T03:41:51.977Z,6.85
2023-04-17T03:44:21.138Z,7.28
2023-04-17T03:46:50.417Z,7.57
2023-04-17T03:49:20.171Z,6.60
2023-04-17T03:51:52.177Z,6.80
2023-04-17T03:54:23.356Z,7.25
2023-04-17T03:56:56.170Z,7.15
2023-04-17T03:59:26.213Z,6.43
2023-04-17T04:01:56.010Z,7.20
2023-04-17T04:04:26.642Z,6.10
2023-04-17T04:07:05.175Z,6.88
2023-04-17T04:09:35.013Z,7.78
2023-04-17T04:12:08.550Z,6.35
2023-04-17T04:14:42.734Z,7.03
2023-04-17T04:17:13.143Z,6.10
2023-04-17T04:19:43.711Z,6.10
2023-04-17T04:22:14.814Z,6.03
2023-04-17T04:24:53.898Z,5.68
2023-04-17T04:27:32.984Z,4.72
2023-04-17T04:30:04.463Z,5.50
2023-04-17T04:32:37.892Z,5.40
2023-04-17T04:35:09.981Z,5.07
2023-04-17T04:37:39.360Z,5.60
2023-04-17T04:40:11.963Z,5.07
2023-04-17T04:42:49.905Z,5.55
2023-04-17T04:45:30.387Z,5.60
2023-04-17T04:48:01.016Z,4.43
2023-04-17T04:50:33.875Z,5.07
2023-04-17T04:53:07.417Z,5.37
2023-04-17T04:55:51.236Z,5.25
2023-04-17T04:58:24.597Z,4.55
2023-04-17T05:00:55.077Z,4.68
2023-04-17T05:03:31.545Z,6.40
2023-04-17T05:06:05.172Z,6.30
2023-04-17T05:08:42.473Z,8.80
2023-04-17T05:11:14.619Z,4.38
2023-04-17T05:13:47.493Z,4.78
2023-04-17T05:16:34.431Z,4.27
2023-04-17T05:19:04.182Z,3.40
2023-04-17T05:21:57.672Z,3.75
2023-04-17T05:24:27.413Z,3.45
2023-04-17T05:26:57.225Z,3.70
2023-04-17T05:29:28.257Z,3.60
2023-04-17T05:31:58.770Z,3.70
2023-04-17T05:34:47.889Z,3.20
2023-04-17T05:37:19.004Z,3.75
2023-04-17T05:39:48.580Z,3.95
2023-04-17T05:42:18.174Z,3.88
2023-04-17T05:44:48.878Z,3.80
2023-04-17T05:47:18.421Z,3.55
2023-04-17T05:49:48.917Z,3.75
2023-04-17T05:52:19.211Z,3.90
2023-04-17T05:54:51.225Z,3.90
2023-04-17T05:57:22.410Z,3.78
2023-04-17T05:59:53.166Z,3.33
2023-04-17T06:02:24.562Z,3.60
2023-04-17T06:04:59.003Z,3.22
2023-04-17T06:07:29.446Z,2.70
2023-04-17T06:09:59.066Z,3.00
2023-04-17T06:12:30.058Z,2.97
2023-04-17T06:15:08.057Z,2.88
2023-04-17T06:17:39.091Z,2.50
2023-04-17T06:20:10.583Z,2.47
2023-04-17T06:22:44.409Z,2.53
2023-04-17T06:25:13.856Z,2.60
2023-04-17T06:27:43.111Z,2.70
2023-04-17T06:30:17.135Z,2.97
2023-04-17T06:35:26.991Z,2.47
2023-04-17T06:38:04.659Z,2.83
2023-04-17T06:40:36.000Z,2.45
2023-04-17T06:43:10.710Z,2.38
2023-04-17T06:45:43.100Z,2.35
2023-04-17T06:48:12.483Z,2.47
2023-04-17T06:50:41.542Z,1.95
2023-04-17T06:53:10.615Z,1.80
2023-04-17T06:55:40.043Z,1.92
2023-04-17T06:58:12.490Z,2.50
2023-04-17T07:00:45.494Z,2.22
2023-04-17T07:03:15.199Z,2.03
2023-04-17T07:05:45.951Z,2.10
2023-04-17T07:08:44.083Z,1.77
2023-04-17T07:11:16.337Z,2.10
2023-04-17T07:13:54.531Z,2.22
2023-04-17T07:16:32.695Z,1.83
2023-04-17T07:19:07.969Z,7.28
2023-04-17T07:21:37.894Z,6.88
2023-04-17T07:24:12.406Z,3.08
2023-04-17T07:26:43.416Z,2.20
2023-04-17T07:29:17.634Z,2.60
2023-04-17T07:31:51.283Z,2.20
2023-04-17T07:36:51.967Z,2.00
2023-04-17T07:39:21.540Z,5.63
2023-04-17T07:41:50.773Z,3.08
2023-04-17T07:44:20.078Z,2.45
2023-04-17T07:46:53.313Z,2.65
2023-04-17T07:49:28.721Z,2.10
2023-04-17T07:52:00.240Z,3.17
2023-04-17T07:54:31.723Z,2.25
2023-04-17T07:57:04.622Z,2.30
2023-04-17T07:59:33.820Z,2.45
2023-04-17T08:02:04.705Z,2.53
2023-04-17T08:04:34.467Z,2.53
2023-04-17T08:07:08.570Z,2.00
2023-04-17T08:09:47.919Z,2.00
2023-04-17T08:12:23.637Z,2.20
2023-04-17T08:14:57.832Z,2.15
2023-04-17T08:17:31.012Z,1.98
2023-04-17T08:20:02.190Z,2.10
2023-04-17T08:22:31.516Z,1.73
2023-04-17T08:25:01.329Z,1.65
2023-04-17T08:27:31.736Z,1.67
2023-04-17T08:30:01.963Z,2.22
2023-04-17T08:32:39.068Z,2.20
2023-04-17T08:35:09.953Z,2.00
2023-04-17T08:37:39.089Z,1.90
2023-04-17T08:40:12.223Z,1.98
2023-04-17T08:42:47.800Z,2.95
2023-04-17T08:45:17.569Z,1.77
2023-04-17T08:47:48.434Z,2.75
2023-04-17T08:50:19.859Z,1.80
2023-04-17T08:52:53.379Z,1.90
2023-04-17T08:55:25.439Z,1.67
2023-04-17T08:57:56.687Z,1.83
2023-04-17T09:00:27.301Z,1.60
2023-04-17T09:03:00.077Z,1.92
2023-04-17T09:05:34.439Z,1.92
2023-04-17T09:08:12.424Z,1.77
2023-04-17T09:10:46.187Z,1.70
2023-04-17T09:13:17.881Z,1.80
2023-04-17T09:15:49.780Z,1.65
2023-04-17T09:18:28.424Z,1.58
2023-04-17T09:20:59.277Z,1.50
2023-04-17T09:23:29.878Z,1.70
2023-04-17T09:26:09.658Z,3.08
2023-04-17T09:28:40.261Z,1.60
2023-04-17T09:31:27.930Z,1.73
2023-04-17T09:34:00.177Z,2.00
2023-04-17T09:36:31.146Z,1.67
2023-04-17T09:39:01.378Z,1.85
2023-04-17T09:41:32.628Z,1.80
2023-04-17T09:44:05.592Z,1.73
2023-04-17T09:46:43.158Z,1.52
2023-04-17T09:49:22.220Z,1.80
2023-04-17T09:51:54.145Z,1.40
2023-04-17T09:54:24.180Z,1.58
2023-04-17T09:56:55.812Z,2.30
2023-04-17T09:59:25.761Z,3.08
2023-04-17T10:01:55.203Z,1.80
2023-04-17T10:04:26.133Z,1.73
2023-04-17T10:06:57.680Z,1.70
2023-04-17T10:09:27.410Z,1.83
2023-04-17T10:11:57.842Z,1.60
2023-04-17T10:14:31.638Z,1.80
2023-04-17T10:17:01.102Z,1.90
2023-04-17T10:19:33.392Z,1.85
2023-04-17T10:22:31.221Z,1.75
2023-04-17T10:25:20.564Z,1.95
2023-04-17T10:27:52.194Z,1.85
2023-04-17T10:30:25.106Z,1.55
2023-04-17T10:33:27.673Z,1.80
2023-04-17T10:35:58.061Z,1.98
2023-04-17T10:38:34.663Z,2.15
2023-04-17T10:41:06.006Z,1.95
2023-04-17T10:43:35.419Z,1.63
2023-04-17T10:46:06.988Z,1.73
2023-04-17T10:48:47.038Z,1.92
2023-04-17T10:51:47.380Z,1.80
2023-04-17T10:54:17.095Z,1.73
2023-04-17T10:56:48.653Z,2.00
2023-04-17T10:59:19.091Z,2.10
2023-04-17T11:02:01.234Z,1.80
2023-04-17T11:04:33.859Z,2.00
2023-04-17T11:07:04.936Z,1.95
2023-04-17T11:09:37.116Z,1.90
2023-04-17T11:12:06.775Z,1.75
2023-04-17T11:14:43.260Z,2.00
2023-04-17T11:17:14.281Z,1.73
2023-04-17T11:19:45.192Z,1.92
2023-04-17T11:22:19.445Z,1.80
2023-04-17T11:24:51.624Z,2.00
2023-04-17T11:27:23.370Z,2.30
2023-04-17T11:29:55.511Z,1.95
2023-04-17T11:32:25.549Z,2.10
2023-04-17T11:34:56.601Z,1.80
2023-04-17T11:37:27.048Z,1.90
2023-04-17T11:40:10.707Z,2.78
2023-04-17T11:42:46.405Z,1.58
2023-04-17T11:45:15.834Z,1.90
2023-04-17T11:47:45.241Z,1.63
2023-04-17T11:50:18.061Z,1.60
2023-04-17T11:55:18.206Z,1.80
2023-04-17T11:57:47.651Z,1.50
2023-04-17T12:00:17.782Z,1.95
2023-04-17T12:02:47.295Z,1.30
2023-04-17T12:05:17.974Z,1.17
2023-04-17T12:07:48.635Z,1.20
2023-04-17T12:10:18.037Z,1.10
2023-04-17T12:12:47.399Z,1.33
2023-04-17T12:15:16.704Z,1.33
2023-04-17T12:17:46.493Z,1.10
2023-04-17T12:20:16.165Z,1.63
2023-04-17T12:22:45.365Z,1.40
2023-04-17T12:25:16.257Z,1.27
2023-04-17T12:27:46.994Z,1.10
2023-04-17T12:30:19.537Z,1.17
2023-04-17T12:32:49.653Z,1.45
2023-04-17T12:35:22.507Z,1.40
2023-04-17T12:37:52.345Z,1.30
2023-04-17T12:40:27.796Z,1.50
2023-04-17T12:42:56.990Z,1.48
2023-04-17T12:45:29.309Z,0.90
2023-04-17T12:48:02.165Z,1.10
2023-04-17T12:50:32.369Z,1.00
2023-04-17T12:53:04.536Z,1.10
2023-04-17T12:55:35.584Z,1.20
2023-04-17T12:58:05.666Z,1.15
2023-04-17T13:00:35.430Z,1.10
2023-04-17T13:03:06.491Z,1.30
2023-04-17T13:05:36.259Z,1.10
2023-04-17T13:08:12.546Z,1.55
2023-04-17T13:10:43.637Z,1.30
2023-04-17T13:13:19.890Z,1.83
2023-04-17T13:15:52.175Z,1.50
2023-04-17T13:18:21.428Z,1.73
2023-04-17T13:20:50.352Z,2.00
2023-04-17T13:23:24.106Z,1.38
2023-04-17T13:26:11.432Z,1.42
2023-04-17T13:29:09.693Z,3.53
2023-04-17T13:31:50.118Z,2.55
2023-04-17T13:34:46.916Z,1.00
2023-04-17T13:37:18.731Z,1.40
2023-04-17T13:39:54.066Z,1.57
2023-04-17T13:42:42.573Z,1.23
2023-04-17T13:45:18.468Z,1.10
2023-04-17T13:47:53.240Z,1.02
2023-04-17T13:50:33.784Z,1.00
2023-04-17T13:53:03.416Z,0.90
2023-04-17T13:55:32.800Z,1.05
2023-04-17T13:58:11.378Z,1.10
2023-04-17T14:00:40.881Z,0.93
2023-04-17T14:03:12.735Z,1.80
2023-04-17T14:05:42.317Z,1.27
2023-04-17T14:08:11.492Z,1.20
2023-04-17T14:10:41.115Z,1.27
2023-04-17T14:13:11.903Z,0.95
2023-04-17T14:15:44.465Z,5.05
2023-04-17T14:18:14.316Z,1.88
2023-04-17T14:20:43.800Z,1.58
2023-04-17T14:23:14.877Z,1.40
2023-04-17T14:25:53.232Z,1.25
2023-04-17T14:28:24.241Z,1.17
2023-04-17T14:31:00.431Z,1.27
2023-04-17T14:33:35.722Z,1.25
2023-04-17T14:36:06.057Z,0.95
2023-04-17T14:38:35.319Z,1.05
2023-04-17T14:41:09.144Z,1.10
2023-04-17T14:43:39.559Z,1.10
2023-04-17T14:46:09.012Z,1.20
2023-04-17T14:48:48.097Z,1.60
2023-04-17T14:51:24.755Z,1.20
2023-04-17T14:53:54.362Z,1.13
2023-04-17T14:56:23.817Z,1.00
2023-04-17T14:58:55.365Z,1.20
2023-04-17T15:01:24.971Z,1.10
2023-04-17T15:03:54.586Z,1.50
2023-04-17T15:06:23.842Z,1.05
2023-04-17T15:08:53.229Z,1.35
2023-04-17T15:11:22.653Z,0.90
2023-04-17T15:13:53.489Z,1.63
2023-04-17T15:16:22.724Z,1.05
2023-04-17T15:18:52.410Z,1.40
2023-04-17T15:21:21.908Z,1.20
2023-04-17T15:23:51.279Z,1.27
2023-04-17T15:26:20.774Z,1.23
2023-04-17T15:28:50.023Z,1.13
2023-04-17T15:31:20.684Z,1.40
2023-04-17T15:33:50.087Z,1.25
2023-04-17T15:36:19.411Z,1.25
2023-04-17T15:38:48.918Z,1.05
2023-04-17T15:41:18.174Z,0.98
2023-04-17T15:43:47.464Z,1.05
2023-04-17T15:46:17.151Z,1.40
2023-04-17T15:48:54.967Z,1.60
2023-04-17T15:51:37.277Z,2.80
2023-04-17T15:54:08.136Z,1.20
2023-04-17T15:56:37.725Z,1.27
2023-04-17T15:59:06.932Z,2.10
2023-04-17T16:01:35.935Z,1.20
2023-04-17T16:04:06.494Z,1.77
2023-04-17T16:06:36.363Z,1.30
2023-04-17T16:09:08.938Z,1.20
2023-04-17T16:11:38.171Z,1.50
2023-04-17T16:14:07.450Z,1.27
2023-04-17T16:16:37.387Z,2.33
2023-04-17T16:19:10.794Z,2.75
2023-04-17T16:22:00.174Z,1.55
2023-04-17T16:24:29.216Z,1.92
2023-04-17T16:27:00.245Z,1.38
2023-04-17T16:29:29.637Z,1.60
2023-04-17T16:31:59.892Z,1.10
2023-04-17T16:34:30.640Z,1.40
2023-04-17T16:36:59.930Z,1.20
2023-04-17T16:39:29.547Z,1.40
2023-04-17T16:41:58.847Z,1.42
2023-04-17T16:44:28.988Z,1.65
2023-04-17T16:47:12.613Z,1.58
2023-04-17T16:49:44.246Z,1.70
2023-04-17T16:52:13.808Z,1.38
2023-04-17T16:54:47.296Z,1.65
2023-04-17T16:57:21.637Z,1.73
2023-04-17T16:59:51.198Z,1.55
2023-04-17T17:02:21.133Z,2.10
2023-04-17T17:04:51.565Z,1.50
2023-04-17T17:07:21.016Z,1.65
2023-04-17T17:09:50.083Z,1.60
2023-04-17T17:12:20.457Z,1.70
2023-04-17T17:14:50.002Z,2.10
2023-04-17T17:17:20.726Z,1.80
2023-04-17T17:20:13.047Z,2.25
2023-04-17T17:23:05.400Z,3.63
2023-04-17T17:25:33.054Z,2.20
2023-04-17T17:28:05.055Z,3.13
2023-04-17T17:30:34.168Z,2.03
2023-04-17T17:33:03.574Z,2.05
2023-04-17T17:35:36.875Z,1.77
2023-04-17T17:38:11.974Z,1.63
2023-04-17T17:40:41.634Z,1.77
2023-04-17T17:43:12.395Z,3.58
2023-04-17T17:46:15.745Z,3.00
2023-04-17T17:48:49.081Z,1.63
2023-04-17T17:51:20.654Z,2.20
2023-04-17T17:53:49.874Z,1.50
2023-04-17T17:56:21.618Z,2.15
2023-04-17T17:58:51.051Z,1.83
2023-04-17T18:01:21.392Z,1.73
2023-04-17T18:03:53.955Z,1.88
2023-04-17T18:06:26.414Z,2.05
2023-04-17T18:08:55.813Z,1.52
2023-04-17T18:11:25.408Z,1.60
2023-04-17T18:13:57.798Z,1.60
2023-04-17T18:16:43.840Z,1.30
2023-04-17T18:19:15.654Z,1.88
2023-04-17T18:21:47.809Z,1.60
2023-04-17T18:24:17.078Z,1.60
2023-04-17T18:26:52.247Z,1.20
2023-04-17T18:29:22.176Z,1.60
2023-04-17T18:31:53.038Z,1.52
2023-04-17T18:34:23.952Z,1.60
2023-04-17T18:36:54.797Z,2.03
2023-04-17T18:39:24.464Z,1.70
2023-04-17T18:41:56.091Z,2.20
2023-04-17T18:44:25.766Z,1.65
2023-04-17T18:46:56.881Z,1.73
2023-04-17T18:49:27.754Z,2.00
2023-04-17T18:51:58.886Z,1.80
2023-04-17T18:54:28.294Z,1.70
2023-04-17T18:57:00.407Z,1.70
2023-04-17T18:59:31.611Z,1.83
2023-04-17T19:02:01.453Z,1.90
2023-04-17T19:04:31.598Z,2.20
2023-04-17T19:07:03.417Z,2.35
2023-04-17T19:09:33.065Z,2.03
2023-04-17T19:12:04.535Z,2.13
2023-04-17T19:14:33.778Z,2.58
2023-04-17T19:17:04.762Z,2.50
2023-04-17T19:19:34.385Z,1.92
2023-04-17T19:22:05.669Z,2.30
2023-04-17T19:24:35.942Z,2.78
2023-04-17T19:27:06.534Z,2.72
2023-04-17T19:29:35.918Z,2.35
2023-04-17T19:32:08.223Z,2.75
2023-04-17T19:34:37.410Z,3.03
2023-04-17T19:37:11.563Z,3.17
2023-04-17T19:39:40.608Z,2.78
2023-04-17T19:42:12.710Z,3.00
2023-04-17T19:44:42.186Z,2.90
2023-04-17T19:47:11.538Z,2.30
2023-04-17T19:49:42.982Z,2.42
2023-04-17T19:52:14.072Z,2.17
2023-04-17T19:54:45.536Z,2.35
2023-04-17T19:57:14.830Z,2.30
2023-04-17T19:59:46.590Z,2.28
2023-04-17T20:02:17.410Z,2.50
2023-04-17T20:04:46.928Z,2.17
2023-04-17T20:10:50.706Z,2.75
2023-04-17T20:13:20.086Z,2.33
2023-04-17T20:15:49.542Z,2.15
2023-04-17T20:18:19.492Z,1.95
2023-04-17T20:20:48.695Z,2.30
2023-04-17T20:23:19.070Z,2.10
2023-04-17T20:25:50.682Z,2.33
2023-04-17T20:28:20.074Z,1.95
2023-04-17T20:30:50.727Z,1.98
2023-04-17T20:33:22.195Z,1.98
2023-04-17T20:35:52.031Z,2.10
2023-04-17T20:38:23.021Z,1.98
2023-04-17T20:40:54.674Z,2.33
2023-04-17T20:43:24.382Z,2.20
2023-04-17T20:46:06.140Z,2.40
2023-04-17T20:48:35.245Z,2.08
2023-04-17T20:51:05.688Z,1.90
2023-04-17T20:53:38.115Z,2.40
2023-04-17T20:56:07.718Z,2.35
2023-04-17T20:58:40.159Z,1.95
2023-04-17T21:01:09.560Z,2.25
2023-04-17T21:03:38.841Z,2.58
2023-04-17T21:06:08.452Z,1.90
2023-04-17T21:08:39.055Z,1.98
2023-04-17T21:11:08.408Z,2.03
2023-04-17T21:13:37.941Z,2.38
2023-04-17T21:16:15.382Z,1.98
2023-04-17T21:18:45.304Z,1.83
2023-04-17T21:21:14.786Z,1.80
2023-04-17T21:23:45.365Z,2.17
2023-04-17T21:26:14.339Z,1.80
2023-04-17T21:28:43.824Z,2.00
2023-04-17T21:31:15.199Z,2.30
2023-04-17T21:33:44.278Z,2.03
2023-04-17T21:36:13.568Z,2.05
2023-04-17T21:38:43.824Z,2.05
2023-04-17T21:41:14.518Z,2.70
2023-04-17T21:43:43.717Z,2.40
2023-04-17T21:46:13.082Z,2.20
2023-04-17T21:48:42.286Z,2.00
2023-04-17T21:51:11.314Z,2.10
2023-04-17T21:53:40.484Z,2.40
2023-04-17T21:56:10.144Z,2.28
2023-04-17T21:58:40.802Z,2.38
2023-04-17T22:01:10.385Z,2.22
2023-04-17T22:03:39.871Z,1.80
2023-04-17T22:06:09.168Z,2.20
2023-04-17T22:08:38.498Z,1.70
2023-04-17T22:11:07.880Z,2.10
2023-04-17T22:13:37.054Z,2.45
2023-04-17T22:16:09.480Z,1.85
2023-04-17T22:18:40.353Z,2.28
2023-04-17T22:21:09.509Z,2.03
2023-04-17T22:23:38.544Z,1.80
2023-04-17T22:26:07.903Z,1.88
2023-04-17T22:28:37.336Z,2.00
2023-04-17T22:31:08.232Z,2.17
2023-04-17T22:33:39.219Z,2.35
2023-04-17T22:36:08.931Z,2.17
2023-04-17T22:38:38.335Z,2.10
2023-04-17T22:41:10.425Z,1.60
2023-04-17T22:43:39.331Z,1.98
2023-04-17T22:46:09.929Z,2.15
2023-04-17T22:48:40.717Z,2.13
2023-04-17T22:51:10.124Z,2.38
2023-04-17T22:53:40.780Z,1.70
2023-04-17T22:56:14.687Z,1.98
2023-04-17T22:58:50.846Z,2.05
2023-04-17T23:01:21.723Z,2.05
2023-04-17T23:03:50.884Z,2.05
2023-04-17T23:06:23.730Z,2.42
2023-04-17T23:08:58.468Z,2.13
2023-04-17T23:11:29.739Z,2.13
2023-04-17T23:14:03.095Z,2.38
2023-04-17T23:16:33.739Z,2.25
2023-04-17T23:19:02.919Z,2.20
2023-04-17T23:21:32.268Z,1.65
2023-04-17T23:24:03.290Z,2.42
2023-04-17T23:26:32.439Z,2.13
2023-04-17T23:29:01.824Z,2.53
2023-04-17T23:31:31.193Z,1.90
2023-04-17T23:34:01.587Z,2.20
2023-04-17T23:36:30.875Z,2.30
2023-04-17T23:39:00.180Z,2.00
2023-04-17T23:41:29.775Z,1.98
2023-04-17T23:43:58.894Z,1.83
2023-04-17T23:46:27.879Z,1.50
2023-04-17T23:48:56.985Z,1.88
2023-04-17T23:51:27.716Z,2.30
2023-04-17T23:53:58.870Z,1.88
2023-04-17T23:56:31.224Z,2.05
2023-04-17T23:59:00.548Z,1.70
